sensor_id;sensor_type;location;lat;lon;timestamp;temperature;humidity
69464;DHT22;56665;41.106;16.688;2022-11-15T00:01:17;13.84;85.33
69464;DHT22;56665;41.106;16.688;2022-11-15T00:04:40;13.82;84.97
69464;DHT22;56665;41.106;16.688;2022-11-15T00:08:02;13.78;85.14
69464;DHT22;56665;41.106;16.688;2022-11-15T00:11:24;13.73;85.00
69464;DHT22;56665;41.106;16.688;2022-11-15T00:14:48;13.71;84.83
69464;DHT22;56665;41.106;16.688;2022-11-15T00:18:13;13.68;84.87
69464;DHT22;56665;41.106;16.688;2022-11-15T00:21:36;13.59;84.73
69464;DHT22;56665;41.106;16.688;2022-11-15T00:25:01;13.57;85.03
69464;DHT22;56665;41.106;16.688;2022-11-15T00:28:24;13.53;84.82
69464;DHT22;56665;41.106;16.688;2022-11-15T00:31:46;13.51;84.78
69464;DHT22;56665;41.106;16.688;2022-11-15T00:35:09;13.46;84.88
69464;DHT22;56665;41.106;16.688;2022-11-15T00:38:35;13.38;85.13
69464;DHT22;56665;41.106;16.688;2022-11-15T00:41:59;13.36;85.14
69464;DHT22;56665;41.106;16.688;2022-11-15T00:45:22;13.33;84.97
69464;DHT22;56665;41.106;16.688;2022-11-15T00:48:44;13.33;84.92
69464;DHT22;56665;41.106;16.688;2022-11-15T00:52:09;13.31;84.94
69464;DHT22;56665;41.106;16.688;2022-11-15T00:55:31;13.27;84.90
69464;DHT22;56665;41.106;16.688;2022-11-15T00:58:56;13.28;84.87
69464;DHT22;56665;41.106;16.688;2022-11-15T01:02:19;13.22;84.55
69464;DHT22;56665;41.106;16.688;2022-11-15T01:05:41;13.23;84.78
69464;DHT22;56665;41.106;16.688;2022-11-15T01:09:04;13.22;84.99
69464;DHT22;56665;41.106;16.688;2022-11-15T01:12:26;13.24;85.00
69464;DHT22;56665;41.106;16.688;2022-11-15T01:15:48;13.28;84.63
69464;DHT22;56665;41.106;16.688;2022-11-15T01:19:10;13.26;84.33
69464;DHT22;56665;41.106;16.688;2022-11-15T01:22:35;13.26;84.73
69464;DHT22;56665;41.106;16.688;2022-11-15T01:26:05;13.17;84.94
69464;DHT22;56665;41.106;16.688;2022-11-15T01:29:27;13.19;84.98
69464;DHT22;56665;41.106;16.688;2022-11-15T01:32:50;13.16;85.02
69464;DHT22;56665;41.106;16.688;2022-11-15T01:36:15;13.15;84.90
69464;DHT22;56665;41.106;16.688;2022-11-15T01:39:38;13.22;85.10
69464;DHT22;56665;41.106;16.688;2022-11-15T01:46:46;13.16;84.99
69464;DHT22;56665;41.106;16.688;2022-11-15T01:50:16;13.15;84.78
69464;DHT22;56665;41.106;16.688;2022-11-15T01:53:40;13.15;85.09
69464;DHT22;56665;41.106;16.688;2022-11-15T01:57:09;13.12;84.68
69464;DHT22;56665;41.106;16.688;2022-11-15T02:00:32;13.13;85.03
69464;DHT22;56665;41.106;16.688;2022-11-15T02:04:02;13.12;85.01
69464;DHT22;56665;41.106;16.688;2022-11-15T02:07:26;13.13;84.97
69464;DHT22;56665;41.106;16.688;2022-11-15T02:10:49;13.15;85.18
69464;DHT22;56665;41.106;16.688;2022-11-15T02:14:11;13.13;84.95
69464;DHT22;56665;41.106;16.688;2022-11-15T02:21:27;13.12;84.74
69464;DHT22;56665;41.106;16.688;2022-11-15T02:29:03;13.12;84.46
69464;DHT22;56665;41.106;16.688;2022-11-15T02:32:46;13.10;84.63
69464;DHT22;56665;41.106;16.688;2022-11-15T02:36:35;13.07;84.51
69464;DHT22;56665;41.106;16.688;2022-11-15T02:44:04;12.99;84.08
69464;DHT22;56665;41.106;16.688;2022-11-15T02:47:32;12.92;83.52
69464;DHT22;56665;41.106;16.688;2022-11-15T02:50:56;12.80;83.02
69464;DHT22;56665;41.106;16.688;2022-11-15T02:54:24;12.75;82.93
69464;DHT22;56665;41.106;16.688;2022-11-15T03:06:09;12.45;83.56
69464;DHT22;56665;41.106;16.688;2022-11-15T03:09:50;12.42;83.64
69464;DHT22;56665;41.106;16.688;2022-11-15T03:17:41;12.42;83.83
69464;DHT22;56665;41.106;16.688;2022-11-15T03:21:08;12.38;83.37
69464;DHT22;56665;41.106;16.688;2022-11-15T03:24:34;12.30;83.54
69464;DHT22;56665;41.106;16.688;2022-11-15T03:28:02;12.34;84.00
69464;DHT22;56665;41.106;16.688;2022-11-15T03:31:29;12.40;84.07
69464;DHT22;56665;41.106;16.688;2022-11-15T03:35:15;12.37;84.05
69464;DHT22;56665;41.106;16.688;2022-11-15T03:38:40;12.41;84.48
69464;DHT22;56665;41.106;16.688;2022-11-15T03:42:21;12.45;85.00
69464;DHT22;56665;41.106;16.688;2022-11-15T03:46:02;12.51;84.96
69464;DHT22;56665;41.106;16.688;2022-11-15T03:49:34;12.55;85.01
69464;DHT22;56665;41.106;16.688;2022-11-15T03:52:58;12.58;84.93
69464;DHT22;56665;41.106;16.688;2022-11-15T03:56:20;12.61;84.80
69464;DHT22;56665;41.106;16.688;2022-11-15T03:59:43;12.58;84.30
69464;DHT22;56665;41.106;16.688;2022-11-15T04:03:05;12.52;84.16
69464;DHT22;56665;41.106;16.688;2022-11-15T04:06:28;12.55;84.39
69464;DHT22;56665;41.106;16.688;2022-11-15T04:09:51;12.48;84.37
69464;DHT22;56665;41.106;16.688;2022-11-15T04:13:28;12.47;84.71
69464;DHT22;56665;41.106;16.688;2022-11-15T04:16:50;12.54;85.06
69464;DHT22;56665;41.106;16.688;2022-11-15T04:20:16;12.58;85.32
69464;DHT22;56665;41.106;16.688;2022-11-15T04:23:57;12.65;84.88
69464;DHT22;56665;41.106;16.688;2022-11-15T04:27:35;12.78;84.43
69464;DHT22;56665;41.106;16.688;2022-11-15T04:30:58;12.83;84.38
69464;DHT22;56665;41.106;16.688;2022-11-15T04:34:22;12.88;83.43
69464;DHT22;56665;41.106;16.688;2022-11-15T04:37:46;12.92;83.45
69464;DHT22;56665;41.106;16.688;2022-11-15T04:41:09;12.91;83.33
69464;DHT22;56665;41.106;16.688;2022-11-15T04:44:32;12.91;83.56
69464;DHT22;56665;41.106;16.688;2022-11-15T04:47:54;12.89;83.76
69464;DHT22;56665;41.106;16.688;2022-11-15T04:51:17;12.83;83.57
69464;DHT22;56665;41.106;16.688;2022-11-15T04:54:39;12.86;84.44
69464;DHT22;56665;41.106;16.688;2022-11-15T04:58:05;12.92;83.85
69464;DHT22;56665;41.106;16.688;2022-11-15T05:01:28;12.92;83.09
69464;DHT22;56665;41.106;16.688;2022-11-15T05:04:51;12.93;83.07
69464;DHT22;56665;41.106;16.688;2022-11-15T05:08:14;12.95;82.77
69464;DHT22;56665;41.106;16.688;2022-11-15T05:11:38;12.86;82.62
69464;DHT22;56665;41.106;16.688;2022-11-15T05:15:00;12.76;82.97
69464;DHT22;56665;41.106;16.688;2022-11-15T05:18:24;12.75;83.05
69464;DHT22;56665;41.106;16.688;2022-11-15T05:21:48;12.72;82.89
69464;DHT22;56665;41.106;16.688;2022-11-15T05:25:10;12.62;82.87
69464;DHT22;56665;41.106;16.688;2022-11-15T05:28:33;12.58;82.97
69464;DHT22;56665;41.106;16.688;2022-11-15T05:31:58;12.54;83.16
69464;DHT22;56665;41.106;16.688;2022-11-15T05:35:30;12.54;83.02
69464;DHT22;56665;41.106;16.688;2022-11-15T05:38:54;12.51;82.91
69464;DHT22;56665;41.106;16.688;2022-11-15T05:42:17;12.55;82.81
69464;DHT22;56665;41.106;16.688;2022-11-15T05:45:40;12.55;82.91
69464;DHT22;56665;41.106;16.688;2022-11-15T05:49:05;12.61;82.68
69464;DHT22;56665;41.106;16.688;2022-11-15T05:52:31;12.65;82.45
69464;DHT22;56665;41.106;16.688;2022-11-15T05:55:55;12.72;81.78
69464;DHT22;56665;41.106;16.688;2022-11-15T05:59:18;12.72;81.64
69464;DHT22;56665;41.106;16.688;2022-11-15T06:02:41;12.75;81.39
69464;DHT22;56665;41.106;16.688;2022-11-15T06:06:04;12.75;81.61
69464;DHT22;56665;41.106;16.688;2022-11-15T06:09:27;12.83;81.23
69464;DHT22;56665;41.106;16.688;2022-11-15T06:13:00;12.91;81.09
69464;DHT22;56665;41.106;16.688;2022-11-15T06:16:25;12.98;81.09
69464;DHT22;56665;41.106;16.688;2022-11-15T06:19:47;12.98;80.65
69464;DHT22;56665;41.106;16.688;2022-11-15T06:23:09;13.06;80.63
69464;DHT22;56665;41.106;16.688;2022-11-15T06:26:31;13.09;80.63
69464;DHT22;56665;41.106;16.688;2022-11-15T06:29:53;13.19;80.53
69464;DHT22;56665;41.106;16.688;2022-11-15T06:33:15;13.31;80.24
69464;DHT22;56665;41.106;16.688;2022-11-15T06:36:41;13.34;80.21
69464;DHT22;56665;41.106;16.688;2022-11-15T06:40:04;13.47;80.03
69464;DHT22;56665;41.106;16.688;2022-11-15T06:43:26;13.54;79.53
69464;DHT22;56665;41.106;16.688;2022-11-15T06:46:48;13.70;79.50
69464;DHT22;56665;41.106;16.688;2022-11-15T06:50:10;13.78;79.47
69464;DHT22;56665;41.106;16.688;2022-11-15T06:53:36;13.89;79.01
69464;DHT22;56665;41.106;16.688;2022-11-15T06:56:59;13.99;78.72
69464;DHT22;56665;41.106;16.688;2022-11-15T07:00:22;14.09;78.84
69464;DHT22;56665;41.106;16.688;2022-11-15T07:03:44;14.22;78.65
69464;DHT22;56665;41.106;16.688;2022-11-15T07:07:09;14.26;78.48
69464;DHT22;56665;41.106;16.688;2022-11-15T07:10:31;14.41;78.27
69464;DHT22;56665;41.106;16.688;2022-11-15T07:13:54;14.46;78.11
69464;DHT22;56665;41.106;16.688;2022-11-15T07:17:16;14.52;78.19
69464;DHT22;56665;41.106;16.688;2022-11-15T07:20:38;14.56;78.08
69464;DHT22;56665;41.106;16.688;2022-11-15T07:24:01;14.60;77.90
69464;DHT22;56665;41.106;16.688;2022-11-15T07:27:25;14.60;78.05
69464;DHT22;56665;41.106;16.688;2022-11-15T07:30:47;14.61;78.20
69464;DHT22;56665;41.106;16.688;2022-11-15T07:34:10;14.67;78.21
69464;DHT22;56665;41.106;16.688;2022-11-15T07:37:33;14.66;78.05
69464;DHT22;56665;41.106;16.688;2022-11-15T07:40:57;14.73;78.19
69464;DHT22;56665;41.106;16.688;2022-11-15T07:44:20;14.84;77.99
69464;DHT22;56665;41.106;16.688;2022-11-15T07:47:45;14.94;77.70
69464;DHT22;56665;41.106;16.688;2022-11-15T07:51:11;14.98;77.65
69464;DHT22;56665;41.106;16.688;2022-11-15T07:54:34;15.09;77.73
69464;DHT22;56665;41.106;16.688;2022-11-15T07:58:04;15.20;77.26
69464;DHT22;56665;41.106;16.688;2022-11-15T08:01:26;15.52;76.72
69464;DHT22;56665;41.106;16.688;2022-11-15T08:04:49;15.74;75.69
69464;DHT22;56665;41.106;16.688;2022-11-15T08:08:11;16.00;75.22
69464;DHT22;56665;41.106;16.688;2022-11-15T08:11:34;16.17;74.84
69464;DHT22;56665;41.106;16.688;2022-11-15T08:14:56;16.20;74.91
69464;DHT22;56665;41.106;16.688;2022-11-15T08:18:19;16.51;74.29
69464;DHT22;56665;41.106;16.688;2022-11-15T08:21:42;16.99;72.98
69464;DHT22;56665;41.106;16.688;2022-11-15T08:25:04;17.51;71.71
69464;DHT22;56665;41.106;16.688;2022-11-15T08:28:27;17.92;70.82
69464;DHT22;56665;41.106;16.688;2022-11-15T08:31:49;18.20;69.83
69464;DHT22;56665;41.106;16.688;2022-11-15T08:35:11;18.33;69.23
69464;DHT22;56665;41.106;16.688;2022-11-15T08:38:34;18.79;68.35
69464;DHT22;56665;41.106;16.688;2022-11-15T08:41:56;19.53;66.06
69464;DHT22;56665;41.106;16.688;2022-11-15T08:45:18;20.19;64.34
69464;DHT22;56665;41.106;16.688;2022-11-15T08:48:41;20.69;62.59
69464;DHT22;56665;41.106;16.688;2022-11-15T08:52:04;20.96;61.49
69464;DHT22;56665;41.106;16.688;2022-11-15T08:55:27;21.00;61.43
69464;DHT22;56665;41.106;16.688;2022-11-15T08:58:49;21.19;60.76
69464;DHT22;56665;41.106;16.688;2022-11-15T09:02:12;21.10;60.97
69464;DHT22;56665;41.106;16.688;2022-11-15T09:05:36;20.94;61.24
69464;DHT22;56665;41.106;16.688;2022-11-15T09:09:00;20.60;61.89
69464;DHT22;56665;41.106;16.688;2022-11-15T09:12:23;20.56;62.28
69464;DHT22;56665;41.106;16.688;2022-11-15T09:15:45;20.29;62.41
69464;DHT22;56665;41.106;16.688;2022-11-15T09:19:09;20.14;62.92
69464;DHT22;56665;41.106;16.688;2022-11-15T09:22:31;20.07;63.26
69464;DHT22;56665;41.106;16.688;2022-11-15T09:25:58;20.19;63.04
69464;DHT22;56665;41.106;16.688;2022-11-15T09:29:21;20.64;62.18
69464;DHT22;56665;41.106;16.688;2022-11-15T09:32:44;21.07;61.23
69464;DHT22;56665;41.106;16.688;2022-11-15T09:36:08;21.56;59.68
69464;DHT22;56665;41.106;16.688;2022-11-15T09:39:31;21.69;58.55
69464;DHT22;56665;41.106;16.688;2022-11-15T09:50:47;21.72;59.80
69464;DHT22;56665;41.106;16.688;2022-11-15T09:57:38;22.02;59.52
69464;DHT22;56665;41.106;16.688;2022-11-15T10:00:46;21.97;58.74
69464;DHT22;56665;41.106;16.688;2022-11-15T10:03:55;21.65;60.33
69464;DHT22;56665;41.106;16.688;2022-11-15T10:10:27;21.55;60.61
69464;DHT22;56665;41.106;16.688;2022-11-15T10:13:41;21.72;60.14
69464;DHT22;56665;41.106;16.688;2022-11-15T10:23:22;22.75;57.09
69464;DHT22;56665;41.106;16.688;2022-11-15T10:26:26;22.67;56.93
69464;DHT22;56665;41.106;16.688;2022-11-15T10:29:30;22.24;58.15
69464;DHT22;56665;41.106;16.688;2022-11-15T10:32:36;21.86;59.49
69464;DHT22;56665;41.106;16.688;2022-11-15T10:35:39;21.38;60.16
69464;DHT22;56665;41.106;16.688;2022-11-15T10:42:16;20.96;61.27
69464;DHT22;56665;41.106;16.688;2022-11-15T10:45:38;20.97;61.84
69464;DHT22;56665;41.106;16.688;2022-11-15T10:48:41;20.98;61.74
69464;DHT22;56665;41.106;16.688;2022-11-15T10:55:22;21.24;61.81
69464;DHT22;56665;41.106;16.688;2022-11-15T11:01:46;21.51;61.43
69464;DHT22;56665;41.106;16.688;2022-11-15T11:04:52;21.46;60.93
69464;DHT22;56665;41.106;16.688;2022-11-15T11:11:20;21.19;60.52
69464;DHT22;56665;41.106;16.688;2022-11-15T11:14:29;21.00;61.32
69464;DHT22;56665;41.106;16.688;2022-11-15T11:20:41;20.93;61.91
69464;DHT22;56665;41.106;16.688;2022-11-15T11:23:52;21.14;61.56
69464;DHT22;56665;41.106;16.688;2022-11-15T11:33:51;21.39;60.80
69464;DHT22;56665;41.106;16.688;2022-11-15T11:37:31;21.28;60.83
69464;DHT22;56665;41.106;16.688;2022-11-15T11:40:59;20.98;61.76
69464;DHT22;56665;41.106;16.688;2022-11-15T11:52:25;20.73;62.93
69464;DHT22;56665;41.106;16.688;2022-11-15T11:55:53;20.66;63.25
69464;DHT22;56665;41.106;16.688;2022-11-15T11:59:12;20.64;63.25
69464;DHT22;56665;41.106;16.688;2022-11-15T12:02:29;20.86;63.02
69464;DHT22;56665;41.106;16.688;2022-11-15T12:05:38;20.97;62.37
69464;DHT22;56665;41.106;16.688;2022-11-15T12:12:34;20.87;61.30
69464;DHT22;56665;41.106;16.688;2022-11-15T12:15:42;20.72;62.07
69464;DHT22;56665;41.106;16.688;2022-11-15T12:18:53;20.75;62.91
69464;DHT22;56665;41.106;16.688;2022-11-15T12:22:04;20.14;63.58
69464;DHT22;56665;41.106;16.688;2022-11-15T12:28:50;20.22;63.70
69464;DHT22;56665;41.106;16.688;2022-11-15T12:31:56;20.04;64.10
69464;DHT22;56665;41.106;16.688;2022-11-15T12:35:06;19.79;65.06
69464;DHT22;56665;41.106;16.688;2022-11-15T12:38:56;19.42;66.18
69464;DHT22;56665;41.106;16.688;2022-11-15T12:45:43;18.96;67.75
69464;DHT22;56665;41.106;16.688;2022-11-15T12:55:31;18.86;68.04
69464;DHT22;56665;41.106;16.688;2022-11-15T12:59:02;18.72;68.52
69464;DHT22;56665;41.106;16.688;2022-11-15T13:02:22;18.92;68.48
69464;DHT22;56665;41.106;16.688;2022-11-15T13:05:51;19.06;68.23
69464;DHT22;56665;41.106;16.688;2022-11-15T13:08:56;18.72;68.50
69464;DHT22;56665;41.106;16.688;2022-11-15T13:12:11;18.64;68.91
69464;DHT22;56665;41.106;16.688;2022-11-15T13:15:37;18.41;69.84
69464;DHT22;56665;41.106;16.688;2022-11-15T13:18:41;18.18;70.40
69464;DHT22;56665;41.106;16.688;2022-11-15T13:21:49;18.12;70.39
69464;DHT22;56665;41.106;16.688;2022-11-15T13:28:44;18.41;69.41
69464;DHT22;56665;41.106;16.688;2022-11-15T13:31:49;18.36;69.27
69464;DHT22;56665;41.106;16.688;2022-11-15T13:34:53;18.26;69.59
69464;DHT22;56665;41.106;16.688;2022-11-15T13:38:03;18.26;69.61
69464;DHT22;56665;41.106;16.688;2022-11-15T13:44:34;18.31;70.01
69464;DHT22;56665;41.106;16.688;2022-11-15T13:47:38;18.46;69.26
69464;DHT22;56665;41.106;16.688;2022-11-15T13:50:42;18.18;69.59
69464;DHT22;56665;41.106;16.688;2022-11-15T13:53:50;18.16;70.04
69464;DHT22;56665;41.106;16.688;2022-11-15T14:00:04;17.97;70.58
69464;DHT22;56665;41.106;16.688;2022-11-15T14:06:25;17.61;72.08
69464;DHT22;56665;41.106;16.688;2022-11-15T14:12:38;17.35;72.88
69464;DHT22;56665;41.106;16.688;2022-11-15T14:15:44;17.45;72.54
69464;DHT22;56665;41.106;16.688;2022-11-15T14:18:52;17.52;72.14
69464;DHT22;56665;41.106;16.688;2022-11-15T14:25:51;17.42;72.45
69464;DHT22;56665;41.106;16.688;2022-11-15T14:28:55;17.41;72.70
69464;DHT22;56665;41.106;16.688;2022-11-15T14:32:17;17.27;72.93
69464;DHT22;56665;41.106;16.688;2022-11-15T14:35:22;17.16;73.26
69464;DHT22;56665;41.106;16.688;2022-11-15T14:38:26;17.11;73.25
69464;DHT22;56665;41.106;16.688;2022-11-15T14:41:34;17.00;73.67
69464;DHT22;56665;41.106;16.688;2022-11-15T14:44:41;16.89;74.19
69464;DHT22;56665;41.106;16.688;2022-11-15T14:47:46;16.90;74.33
69464;DHT22;56665;41.106;16.688;2022-11-15T14:50:49;16.85;74.49
69464;DHT22;56665;41.106;16.688;2022-11-15T14:53:53;16.77;74.97
69464;DHT22;56665;41.106;16.688;2022-11-15T14:57:01;16.77;74.88
69464;DHT22;56665;41.106;16.688;2022-11-15T15:00:06;16.76;75.45
69464;DHT22;56665;41.106;16.688;2022-11-15T15:03:18;16.70;76.06
69464;DHT22;56665;41.106;16.688;2022-11-15T15:06:22;16.44;77.62
69464;DHT22;56665;41.106;16.688;2022-11-15T15:09:26;16.28;78.73
69464;DHT22;56665;41.106;16.688;2022-11-15T15:12:30;16.22;79.06
69464;DHT22;56665;41.106;16.688;2022-11-15T15:15:38;16.20;79.19
69464;DHT22;56665;41.106;16.688;2022-11-15T15:18:42;16.15;79.50
69464;DHT22;56665;41.106;16.688;2022-11-15T15:21:46;16.14;79.86
69464;DHT22;56665;41.106;16.688;2022-11-15T15:24:51;16.11;80.36
69464;DHT22;56665;41.106;16.688;2022-11-15T15:27:55;16.10;80.41
69464;DHT22;56665;41.106;16.688;2022-11-15T15:30:59;16.07;81.14
69464;DHT22;56665;41.106;16.688;2022-11-15T15:34:03;16.08;81.27
69464;DHT22;56665;41.106;16.688;2022-11-15T15:37:25;16.11;81.17
69464;DHT22;56665;41.106;16.688;2022-11-15T15:40:31;16.17;81.37
69464;DHT22;56665;41.106;16.688;2022-11-15T15:43:37;16.17;81.71
69464;DHT22;56665;41.106;16.688;2022-11-15T15:46:41;16.20;81.86
69464;DHT22;56665;41.106;16.688;2022-11-15T15:49:47;16.18;81.32
69464;DHT22;56665;41.106;16.688;2022-11-15T15:52:56;16.25;81.42
69464;DHT22;56665;41.106;16.688;2022-11-15T15:56:02;16.27;81.56
69464;DHT22;56665;41.106;16.688;2022-11-15T15:59:05;16.25;81.95
69464;DHT22;56665;41.106;16.688;2022-11-15T16:02:14;16.27;81.31
69464;DHT22;56665;41.106;16.688;2022-11-15T16:05:21;16.25;82.22
69464;DHT22;56665;41.106;16.688;2022-11-15T16:08:26;16.22;82.53
69464;DHT22;56665;41.106;16.688;2022-11-15T16:11:30;16.18;83.01
69464;DHT22;56665;41.106;16.688;2022-11-15T16:14:36;16.18;83.00
69464;DHT22;56665;41.106;16.688;2022-11-15T16:17:44;16.14;83.27
69464;DHT22;56665;41.106;16.688;2022-11-15T16:20:49;16.13;83.46
69464;DHT22;56665;41.106;16.688;2022-11-15T16:23:56;16.08;83.58
69464;DHT22;56665;41.106;16.688;2022-11-15T16:27:00;16.06;83.79
69464;DHT22;56665;41.106;16.688;2022-11-15T16:30:04;15.96;83.83
69464;DHT22;56665;41.106;16.688;2022-11-15T16:33:10;15.97;84.00
69464;DHT22;56665;41.106;16.688;2022-11-15T16:52:58;15.70;82.58
69464;DHT22;56665;41.106;16.688;2022-11-15T16:56:02;15.66;82.73
69464;DHT22;56665;41.106;16.688;2022-11-15T16:59:08;15.62;82.54
69464;DHT22;56665;41.106;16.688;2022-11-15T17:02:12;15.49;82.64
69464;DHT22;56665;41.106;16.688;2022-11-15T17:05:19;15.46;82.99
69464;DHT22;56665;41.106;16.688;2022-11-15T17:08:23;15.43;82.85
69464;DHT22;56665;41.106;16.688;2022-11-15T17:11:27;15.40;83.02
69464;DHT22;56665;41.106;16.688;2022-11-15T17:14:31;15.35;83.18
69464;DHT22;56665;41.106;16.688;2022-11-15T17:17:39;15.28;83.39
69464;DHT22;56665;41.106;16.688;2022-11-15T17:20:43;15.22;83.48
69464;DHT22;56665;41.106;16.688;2022-11-15T17:23:47;15.19;83.60
69464;DHT22;56665;41.106;16.688;2022-11-15T17:26:52;15.18;83.66
69464;DHT22;56665;41.106;16.688;2022-11-15T17:29:56;15.15;83.71
69464;DHT22;56665;41.106;16.688;2022-11-15T17:33:01;15.11;83.88
69464;DHT22;56665;41.106;16.688;2022-11-15T17:36:09;15.05;84.29
69464;DHT22;56665;41.106;16.688;2022-11-15T17:39:13;15.02;84.25
69464;DHT22;56665;41.106;16.688;2022-11-15T17:42:16;15.01;84.24
69464;DHT22;56665;41.106;16.688;2022-11-15T17:45:20;14.94;84.55
69464;DHT22;56665;41.106;16.688;2022-11-15T17:48:25;14.95;84.71
69464;DHT22;56665;41.106;16.688;2022-11-15T17:51:29;14.94;84.82
69464;DHT22;56665;41.106;16.688;2022-11-15T17:54:33;14.92;84.73
69464;DHT22;56665;41.106;16.688;2022-11-15T17:57:36;14.88;84.77
69464;DHT22;56665;41.106;16.688;2022-11-15T18:00:40;14.84;84.71
69464;DHT22;56665;41.106;16.688;2022-11-15T18:03:45;14.84;84.83
69464;DHT22;56665;41.106;16.688;2022-11-15T18:06:50;14.77;84.78
69464;DHT22;56665;41.106;16.688;2022-11-15T18:09:53;14.68;85.01
69464;DHT22;56665;41.106;16.688;2022-11-15T18:12:58;14.67;85.09
69464;DHT22;56665;41.106;16.688;2022-11-15T18:16:07;14.71;85.54
69464;DHT22;56665;41.106;16.688;2022-11-15T18:19:13;14.77;85.29
69464;DHT22;56665;41.106;16.688;2022-11-15T18:22:17;14.81;84.97
69464;DHT22;56665;41.106;16.688;2022-11-15T18:25:24;14.87;84.62
69464;DHT22;56665;41.106;16.688;2022-11-15T18:28:35;14.88;84.21
69464;DHT22;56665;41.106;16.688;2022-11-15T18:31:39;14.95;84.16
69464;DHT22;56665;41.106;16.688;2022-11-15T18:34:44;14.95;83.79
69464;DHT22;56665;41.106;16.688;2022-11-15T18:37:48;14.92;83.60
69464;DHT22;56665;41.106;16.688;2022-11-15T18:40:53;14.87;83.58
69464;DHT22;56665;41.106;16.688;2022-11-15T18:43:59;14.83;83.64
69464;DHT22;56665;41.106;16.688;2022-11-15T18:47:03;14.80;83.95
69464;DHT22;56665;41.106;16.688;2022-11-15T18:50:08;14.76;83.73
69464;DHT22;56665;41.106;16.688;2022-11-15T18:53:12;14.74;84.07
69464;DHT22;56665;41.106;16.688;2022-11-15T18:56:17;14.78;84.40
69464;DHT22;56665;41.106;16.688;2022-11-15T18:59:21;14.84;83.52
69464;DHT22;56665;41.106;16.688;2022-11-15T19:02:25;14.92;80.81
69464;DHT22;56665;41.106;16.688;2022-11-15T19:05:30;14.98;78.22
69464;DHT22;56665;41.106;16.688;2022-11-15T19:08:40;14.98;77.57
69464;DHT22;56665;41.106;16.688;2022-11-15T19:11:45;14.97;76.80
69464;DHT22;56665;41.106;16.688;2022-11-15T19:14:51;14.98;76.70
69464;DHT22;56665;41.106;16.688;2022-11-15T19:17:56;14.97;76.60
69464;DHT22;56665;41.106;16.688;2022-11-15T19:21:06;14.88;77.20
69464;DHT22;56665;41.106;16.688;2022-11-15T19:24:10;14.83;77.87
69464;DHT22;56665;41.106;16.688;2022-11-15T19:27:14;14.78;77.98
69464;DHT22;56665;41.106;16.688;2022-11-15T19:30:18;14.78;77.70
69464;DHT22;56665;41.106;16.688;2022-11-15T19:33:23;14.73;77.68
69464;DHT22;56665;41.106;16.688;2022-11-15T19:36:31;14.67;77.66
69464;DHT22;56665;41.106;16.688;2022-11-15T19:39:35;14.61;77.43
69464;DHT22;56665;41.106;16.688;2022-11-15T19:42:39;14.59;77.75
69464;DHT22;56665;41.106;16.688;2022-11-15T19:45:52;14.53;78.03
69464;DHT22;56665;41.106;16.688;2022-11-15T19:48:56;14.55;77.83
69464;DHT22;56665;41.106;16.688;2022-11-15T19:52:00;14.55;77.36
69464;DHT22;56665;41.106;16.688;2022-11-15T19:55:04;14.60;77.16
69464;DHT22;56665;41.106;16.688;2022-11-15T19:58:08;14.60;76.85
69464;DHT22;56665;41.106;16.688;2022-11-15T20:01:16;14.56;77.14
69464;DHT22;56665;41.106;16.688;2022-11-15T20:04:20;14.55;77.35
69464;DHT22;56665;41.106;16.688;2022-11-15T20:07:26;14.53;77.49
69464;DHT22;56665;41.106;16.688;2022-11-15T20:10:32;14.50;77.37
69464;DHT22;56665;41.106;16.688;2022-11-15T20:13:39;14.43;77.54
69464;DHT22;56665;41.106;16.688;2022-11-15T20:16:44;14.44;77.56
69464;DHT22;56665;41.106;16.688;2022-11-15T20:19:49;14.43;77.80
69464;DHT22;56665;41.106;16.688;2022-11-15T20:22:53;14.44;78.09
69464;DHT22;56665;41.106;16.688;2022-11-15T20:25:56;14.37;78.10
69464;DHT22;56665;41.106;16.688;2022-11-15T20:29:01;14.37;78.94
69464;DHT22;56665;41.106;16.688;2022-11-15T20:32:06;14.41;78.31
69464;DHT22;56665;41.106;16.688;2022-11-15T20:35:09;14.44;78.31
69464;DHT22;56665;41.106;16.688;2022-11-15T20:38:16;14.49;78.58
69464;DHT22;56665;41.106;16.688;2022-11-15T20:41:20;14.49;78.86
69464;DHT22;56665;41.106;16.688;2022-11-15T20:44:23;14.53;79.72
69464;DHT22;56665;41.106;16.688;2022-11-15T20:47:29;14.57;80.24
69464;DHT22;56665;41.106;16.688;2022-11-15T20:50:34;14.64;81.04
69464;DHT22;56665;41.106;16.688;2022-11-15T20:53:39;14.73;81.53
69464;DHT22;56665;41.106;16.688;2022-11-15T20:56:44;14.80;81.99
69464;DHT22;56665;41.106;16.688;2022-11-15T20:59:49;14.78;82.39
69464;DHT22;56665;41.106;16.688;2022-11-15T21:02:53;14.81;82.59
69464;DHT22;56665;41.106;16.688;2022-11-15T21:05:58;14.85;82.55
69464;DHT22;56665;41.106;16.688;2022-11-15T21:09:02;14.81;82.91
69464;DHT22;56665;41.106;16.688;2022-11-15T21:12:24;14.78;82.92
69464;DHT22;56665;41.106;16.688;2022-11-15T21:15:28;14.80;83.21
69464;DHT22;56665;41.106;16.688;2022-11-15T21:18:32;14.81;83.34
69464;DHT22;56665;41.106;16.688;2022-11-15T21:21:37;14.91;83.81
69464;DHT22;56665;41.106;16.688;2022-11-15T21:24:41;14.94;83.66
69464;DHT22;56665;41.106;16.688;2022-11-15T21:27:47;14.99;83.70
69464;DHT22;56665;41.106;16.688;2022-11-15T21:30:55;15.05;83.73
69464;DHT22;56665;41.106;16.688;2022-11-15T21:34:02;15.09;83.85
69464;DHT22;56665;41.106;16.688;2022-11-15T21:37:06;15.15;83.71
69464;DHT22;56665;41.106;16.688;2022-11-15T21:40:10;15.23;83.92
69464;DHT22;56665;41.106;16.688;2022-11-15T21:43:14;15.28;83.77
69464;DHT22;56665;41.106;16.688;2022-11-15T21:46:20;15.35;83.56
69464;DHT22;56665;41.106;16.688;2022-11-15T21:49:24;15.38;83.65
69464;DHT22;56665;41.106;16.688;2022-11-15T21:52:29;15.40;83.53
69464;DHT22;56665;41.106;16.688;2022-11-15T21:55:33;15.46;83.56
69464;DHT22;56665;41.106;16.688;2022-11-15T21:58:38;15.45;83.85
69464;DHT22;56665;41.106;16.688;2022-11-15T22:01:44;15.52;83.61
69464;DHT22;56665;41.106;16.688;2022-11-15T22:05:06;15.56;83.82
69464;DHT22;56665;41.106;16.688;2022-11-15T22:08:13;15.56;83.61
69464;DHT22;56665;41.106;16.688;2022-11-15T22:11:17;15.55;83.85
69464;DHT22;56665;41.106;16.688;2022-11-15T22:14:21;15.59;83.83
69464;DHT22;56665;41.106;16.688;2022-11-15T22:17:26;15.63;83.82
69464;DHT22;56665;41.106;16.688;2022-11-15T22:21:01;15.66;83.72
69464;DHT22;56665;41.106;16.688;2022-11-15T22:24:05;15.69;83.70
69464;DHT22;56665;41.106;16.688;2022-11-15T22:27:09;15.62;83.94